Terminal Aerodrome Forecast
Issued by NWS

Home | Current Version | Previous Version | Text Only | Print | Product List | Glossary On
Versions: 1 2 3 4 5 6 7 8 9 10 11 12 13 14 15 16 17 18 19
000
FTUS46 KLOX 042039 AAB
TAFLGB
TAF AMD
KLGB 042039Z 0421/0518 19007KT P6SM SCT022 BKN150
     FM042300 29012KT P6SM SCT021 BKN150
     FM050400 VRB03KT P6SM BKN015
     FM051500 14006KT P6SM -DZ OVC020=

USA.gov is the U.S. government's official web portal to all federal, state and local government web resources and services.